Aeroporto :
LOGIN :

Iscrizione | Disclaimer

   EN    FR    IT 

 










Sommario :    VFR   VFR Marginale   IFR   IFR Intensivo   IFR Molto Intensivo
Visibilità : 
Base nubi : 
>= 8 km
>= 3000ft
5 / 8 km
1000 / 3000 ft
1500m / 5 km
500 / 1000 ft
800 / 1500m
200 / 500 ft
< 800m
< 200 ft
Simboli :   Temporali  Nebbia  Neve Forte  Precipitazioni Forti  Vento > 20 kt
SIGMETs :   Varie  Temporali  Ghiacco  Turbolenza  Onda orograficha  Ceneri Vulcaniche






- Altitudine del aeroporto : 3368 ft


LSGC - Les Eplatures

ULTIMO METAR :
  • 291620Z 05016KT 020V100 CAVOK 15/02 Q1021

METARs OBSOLETI :
  • 291550Z AUTO 06012KT 030V110 CAVOK 16/02 Q1021
  • 291520Z AUTO 04014KT CAVOK 16/02 Q1021
  • 291450Z 05013KT 020V090 CAVOK 16/03 Q1021
  • 291420Z 04012KT 010V080 CAVOK 16/03 Q1021
  • 291350Z AUTO 05015KT 020V110 CAVOK 16/03 Q1021

TAF TAF LSGC
Valido dal 29 a 15 ore il 30 a 00 ore UTC


291425Z 2915/2924 05012G22KT CAVOK



MetMap, La meteo Aeronautica in un colpo d'occhio ! - Copyright ORBIFLY Dicembre 2007 - Disclaimer

ORBIFLY MET'MAP TEAM :

Programmazione e sviluppo : Alexandra Zaïnal
Concezione : Baudouin d'Aumeries
Aiuto per la programmazione : Marc-Olivier Méhu
Supporto tecnico e logistico : Manuel Goepfert
Aiuto per la traduzione : Arnaldo La Scala

Contatto : metmap@orbifly.com




FONTI E CREDITI :

   NOAA